Time;durP1;ratioP1;P1;durP2;ratioP2;P2;SDS_P1;SDS_P2;PMS_P1;PMS_P2;Temp;Humidity;BMP_temperature;BMP_pressure;BME280_temperature;BME280_humidity;BME280_pressure;Samples;Min_cycle;Max_cycle;Signal;HPM_P1;HPM_P2
2023/07/19 00:01:23;;;;;;;1.85;0.85;;;;;;;17.88;63.43;100683.13;5008621;28;20041;-85
2023/07/19 00:03:50;;;;;;;1.80;1.23;;;;;;;17.89;63.21;100690.16;5032684;28;20041;-85
2023/07/19 00:06:16;;;;;;;2.40;0.90;;;;;;;17.90;62.90;100691.00;5014340;28;20056;-89
2023/07/19 00:08:43;;;;;;;1.25;1.00;;;;;;;17.84;63.11;100689.47;5025318;28;20047;-84
2023/07/19 00:11:09;;;;;;;3.17;0.85;;;;;;;17.77;63.60;100685.31;5030248;28;20095;-83
2023/07/19 00:13:36;;;;;;;4.70;1.33;;;;;;;17.75;64.11;100681.88;5030202;28;20591;-83
2023/07/19 00:16:03;;;;;;;3.55;1.17;;;;;;;17.77;63.48;100678.25;5027016;28;20040;-84
2023/07/19 00:18:30;;;;;;;5.93;1.52;;;;;;;17.77;63.47;100672.97;5010011;28;20087;-83
2023/07/19 00:20:56;;;;;;;1.75;0.80;;;;;;;17.77;63.32;100670.31;5023411;28;20045;-84
2023/07/19 00:23:23;;;;;;;1.27;1.08;;;;;;;17.74;63.44;100665.13;5037962;28;20104;-84
2023/07/19 00:25:50;;;;;;;4.03;1.50;;;;;;;17.73;63.72;100670.47;5024763;28;20043;-84
2023/07/19 00:28:16;;;;;;;3.30;1.05;;;;;;;17.68;63.85;100665.38;5052404;28;20065;-83
2023/07/19 00:30:43;;;;;;;3.28;1.20;;;;;;;17.63;64.74;100657.59;5036482;28;20045;-83
2023/07/19 00:33:09;;;;;;;2.55;1.23;;;;;;;17.61;64.45;100662.09;5032967;28;20757;-84
2023/07/19 00:35:41;;;;;;;2.97;1.48;;;;;;;17.60;64.70;100656.84;5032445;28;20128;-83
2023/07/19 00:38:08;;;;;;;1.25;0.98;;;;;;;17.58;64.80;100648.13;5036275;28;20056;-84
2023/07/19 00:40:35;;;;;;;0.88;0.88;;;;;;;17.56;64.71;100644.66;5032935;28;20040;-87
2023/07/19 00:43:01;;;;;;;2.35;1.30;;;;;;;17.53;64.91;100643.00;5036595;28;20049;-89
2023/07/19 00:45:30;;;;;;;1.85;1.08;;;;;;;17.51;64.86;100635.13;5014478;28;20041;-86
2023/07/19 00:47:57;;;;;;;4.85;1.27;;;;;;;17.49;65.76;100639.59;5029248;28;20037;-88
2023/07/19 00:50:24;;;;;;;1.08;1.00;;;;;;;17.46;65.10;100638.88;5030211;28;20123;-83
2023/07/19 00:52:52;;;;;;;1.33;0.93;;;;;;;17.44;65.02;100632.75;5033791;28;20104;-83
2023/07/19 00:55:20;;;;;;;2.58;1.10;;;;;;;17.40;65.17;100631.16;5019561;28;20825;-83
2023/07/19 00:57:47;;;;;;;4.72;1.23;;;;;;;17.35;65.67;100616.31;5032442;28;20080;-83
2023/07/19 01:00:14;;;;;;;1.90;1.00;;;;;;;17.35;65.89;100616.31;5035761;28;20033;-83
2023/07/19 01:02:43;;;;;;;3.08;1.33;;;;;;;17.34;66.37;100619.88;5017660;28;20041;-83
2023/07/19 01:05:10;;;;;;;2.25;1.25;;;;;;;17.36;65.93;100620.69;5031504;28;20117;-83
2023/07/19 01:07:37;;;;;;;1.13;1.05;;;;;;;17.35;66.38;100615.44;5053717;28;20641;-84
2023/07/19 01:10:05;;;;;;;1.60;1.30;;;;;;;17.38;66.78;100611.81;5032274;28;20116;-85
2023/07/19 01:12:32;;;;;;;2.10;0.98;;;;;;;17.39;66.10;100614.44;5028284;28;20133;-83
2023/07/19 01:14:59;;;;;;;3.17;1.20;;;;;;;17.39;66.16;100606.50;5051979;28;20611;-84
2023/07/19 01:17:25;;;;;;;0.70;0.70;;;;;;;17.41;66.92;100603.78;5028492;28;20084;-83
2023/07/19 01:19:52;;;;;;;4.05;1.60;;;;;;;17.41;66.39;100607.28;5019857;28;20049;-83
2023/07/19 01:22:19;;;;;;;1.77;1.20;;;;;;;17.40;66.48;100600.25;5009239;28;20045;-83
2023/07/19 01:24:46;;;;;;;4.07;0.98;;;;;;;17.38;66.65;100604.75;4986429;28;20447;-83
2023/07/19 01:27:12;;;;;;;1.73;1.10;;;;;;;17.35;66.69;100594.28;5012263;28;20046;-84
2023/07/19 01:29:39;;;;;;;1.15;1.02;;;;;;;17.34;66.53;100606.66;5006483;28;20092;-82
2023/07/19 01:32:06;;;;;;;2.45;1.35;;;;;;;17.31;67.05;100604.13;5023244;28;20107;-83
2023/07/19 01:34:32;;;;;;;3.05;1.05;;;;;;;17.28;67.28;100613.97;5016699;28;20383;-83
2023/07/19 01:36:59;;;;;;;3.60;1.73;;;;;;;17.25;67.54;100601.72;5011049;28;20065;-84
2023/07/19 01:39:26;;;;;;;1.30;1.20;;;;;;;17.20;68.00;100603.66;5015284;28;20113;-84
2023/07/19 01:41:52;;;;;;;0.88;0.70;;;;;;;17.17;67.79;100595.84;5017598;28;20033;-83
2023/07/19 01:44:19;;;;;;;2.15;1.10;;;;;;;17.21;68.23;100584.22;5010420;28;20053;-82
2023/07/19 01:46:45;;;;;;;2.55;1.58;;;;;;;17.23;68.11;100584.16;5013171;28;20033;-82
2023/07/19 01:49:12;;;;;;;2.47;1.20;;;;;;;17.24;68.04;100581.47;4995456;28;20114;-83
2023/07/19 01:51:39;;;;;;;5.25;1.10;;;;;;;17.25;68.00;100591.13;5004169;28;20068;-84
2023/07/19 01:54:05;;;;;;;1.33;0.63;;;;;;;17.28;67.65;100582.22;4990186;28;20037;-83
2023/07/19 01:56:32;;;;;;;4.30;0.60;;;;;;;17.30;67.80;100585.66;5016707;28;20048;-84
2023/07/19 01:58:58;;;;;;;4.65;1.50;;;;;;;17.31;67.64;100584.72;4995952;28;20081;-83
2023/07/19 02:01:25;;;;;;;2.58;1.38;;;;;;;17.30;67.48;100589.16;5016353;28;20076;-84
2023/07/19 02:03:52;;;;;;;4.53;1.20;;;;;;;17.29;67.02;100586.59;5000943;28;20563;-86
2023/07/19 02:06:18;;;;;;;2.42;2.15;;;;;;;17.27;67.15;100586.63;4999648;28;20042;-83
2023/07/19 02:08:45;;;;;;;3.72;1.42;;;;;;;17.24;67.71;100583.25;4998799;28;20045;-85
2023/07/19 02:11:11;;;;;;;2.47;1.40;;;;;;;17.20;67.77;100587.78;5009836;28;20077;-84
2023/07/19 02:13:38;;;;;;;3.47;1.40;;;;;;;17.15;68.08;100590.59;5019246;28;20046;-83
2023/07/19 02:16:05;;;;;;;2.83;1.02;;;;;;;17.12;68.24;100574.00;5014225;28;20133;-85
2023/07/19 02:18:32;;;;;;;2.47;1.25;;;;;;;17.10;68.46;100579.31;5028686;28;20235;-85
2023/07/19 02:20:59;;;;;;;2.00;1.25;;;;;;;17.12;68.71;100579.28;5032034;28;20040;-85
2023/07/19 02:23:26;;;;;;;2.92;1.30;;;;;;;17.12;68.73;100572.22;5029121;28;20124;-84
2023/07/19 02:25:52;;;;;;;1.75;1.20;;;;;;;17.13;68.75;100565.13;5010918;28;20357;-86
2023/07/19 02:28:19;;;;;;;4.20;1.88;;;;;;;17.11;68.97;100559.03;5036466;28;20035;-85
2023/07/19 02:30:46;;;;;;;1.58;1.20;;;;;;;17.08;69.22;100559.13;5032754;28;20043;-83
2023/07/19 02:33:15;;;;;;;2.45;1.50;;;;;;;17.05;69.27;100559.28;5030719;28;20056;-82
2023/07/19 02:35:41;;;;;;;4.88;1.60;;;;;;;17.03;69.69;100554.91;5030099;28;20042;-85
2023/07/19 02:38:09;;;;;;;1.50;1.10;;;;;;;17.03;69.76;100556.69;5032630;28;20106;-84
2023/07/19 02:40:35;;;;;;;2.33;1.60;;;;;;;17.03;70.51;100559.34;5026990;28;20734;-83
2023/07/19 02:43:05;;;;;;;2.42;1.30;;;;;;;17.00;71.09;100549.72;5017012;28;20095;-84
2023/07/19 02:45:35;;;;;;;1.85;1.65;;;;;;;17.00;71.59;100560.31;5034003;28;20037;-82
2023/07/19 02:48:03;;;;;;;2.47;1.77;;;;;;;17.00;72.52;100567.34;5044593;28;20464;-83
2023/07/19 02:50:29;;;;;;;1.77;1.23;;;;;;;16.93;72.98;100564.09;5028522;28;20040;-84
2023/07/19 02:52:56;;;;;;;1.80;1.70;;;;;;;16.92;73.78;100564.16;5021995;28;20032;-86
2023/07/19 02:55:22;;;;;;;2.05;1.85;;;;;;;16.88;74.07;100558.06;5021702;28;20407;-87
2023/07/19 02:57:49;;;;;;;1.92;1.63;;;;;;;16.83;74.38;100560.91;5025483;28;20041;-83
2023/07/19 03:00:15;;;;;;;3.05;1.17;;;;;;;16.83;73.80;100554.72;5015821;28;20076;-82
2023/07/19 03:02:42;;;;;;;2.97;1.73;;;;;;;16.83;74.34;100557.38;5030971;28;20048;-83
2023/07/19 03:05:09;;;;;;;2.75;1.38;;;;;;;16.82;74.35;100553.03;5032230;28;20033;-88
2023/07/19 03:07:36;;;;;;;2.65;1.48;;;;;;;16.75;74.96;100540.94;5021477;28;20495;-84
2023/07/19 03:10:03;;;;;;;4.55;1.85;;;;;;;16.68;74.92;100541.16;5017691;28;20129;-83
2023/07/19 03:12:33;;;;;;;1.95;1.80;;;;;;;16.62;74.95;100540.53;5014250;28;20059;-83
2023/07/19 03:15:01;;;;;;;3.88;1.75;;;;;;;16.53;75.70;100536.41;5062438;28;20042;-83
2023/07/19 03:17:27;;;;;;;1.67;1.58;;;;;;;16.44;76.15;100545.56;5033326;28;20041;-83
2023/07/19 03:19:54;;;;;;;3.42;1.83;;;;;;;16.35;76.30;100544.09;5026653;28;20597;-84
2023/07/19 03:22:21;;;;;;;4.38;1.38;;;;;;;16.31;76.87;100553.03;5032473;28;20068;-85
2023/07/19 03:24:48;;;;;;;3.03;1.63;;;;;;;16.28;77.41;100545.22;5037180;28;20044;-83
2023/07/19 03:27:16;;;;;;;2.90;1.77;;;;;;;16.25;77.12;100557.69;5018923;28;20052;-84
2023/07/19 03:29:43;;;;;;;3.92;1.80;;;;;;;16.20;77.46;100550.78;5018129;28;20726;-83
2023/07/19 03:32:10;;;;;;;5.53;1.90;;;;;;;16.17;77.72;100545.59;5030694;28;20062;-84
2023/07/19 03:34:37;;;;;;;3.88;1.60;;;;;;;16.20;77.92;100545.50;5029932;28;20046;-85
2023/07/19 03:37:04;;;;;;;2.33;1.92;;;;;;;16.21;78.35;100544.56;5040869;28;20044;-85
2023/07/19 03:39:31;;;;;;;1.92;1.67;;;;;;;16.21;77.88;100541.06;5027758;28;20046;-87
2023/07/19 03:41:58;;;;;;;4.13;2.13;;;;;;;16.27;78.44;100543.50;5031792;28;20037;-84
2023/07/19 03:44:25;;;;;;;2.05;1.85;;;;;;;16.31;79.33;100528.38;5021738;28;20096;-85
2023/07/19 03:46:51;;;;;;;4.70;1.70;;;;;;;16.33;79.63;100531.84;5028917;28;20095;-87
2023/07/19 03:49:18;;;;;;;1.80;1.48;;;;;;;16.36;79.72;100532.63;5012836;28;20545;-86
2023/07/19 03:51:45;;;;;;;5.30;2.05;;;;;;;16.39;80.05;100536.94;5031014;28;20068;-88
2023/07/19 03:54:11;;;;;;;4.90;1.73;;;;;;;16.41;79.45;100534.22;5011914;28;20094;-86
2023/07/19 03:56:38;;;;;;;2.03;1.40;;;;;;;16.35;79.26;100530.03;5049204;28;20041;-86
2023/07/19 03:59:04;;;;;;;4.13;2.15;;;;;;;16.37;79.36;100529.06;5021771;28;20045;-85
2023/07/19 04:01:31;;;;;;;2.40;1.95;;;;;;;16.42;78.84;100523.59;5026568;28;20129;-85
2023/07/19 04:03:58;;;;;;;4.28;1.52;;;;;;;16.50;78.94;100525.97;5026197;28;20045;-84
2023/07/19 04:06:24;;;;;;;3.90;1.50;;;;;;;16.59;78.41;100522.16;5027426;28;20048;-84
2023/07/19 04:08:51;;;;;;;2.83;1.55;;;;;;;16.62;78.29;100524.66;5024184;28;20063;-86
2023/07/19 04:11:18;;;;;;;1.58;1.48;;;;;;;16.65;78.03;100527.22;5029524;28;20041;-84
2023/07/19 04:13:44;;;;;;;3.78;1.30;;;;;;;16.67;77.63;100528.00;5038100;28;20065;-83
2023/07/19 04:16:11;;;;;;;1.30;1.20;;;;;;;16.67;77.54;100526.25;5038216;28;20044;-86
2023/07/19 04:18:38;;;;;;;3.70;1.58;;;;;;;16.76;77.69;100518.88;5030515;28;20064;-83
2023/07/19 04:21:04;;;;;;;4.32;1.70;;;;;;;16.85;77.33;100521.19;5022283;28;20029;-81
2023/07/19 04:24:00;;;;;;;3.90;1.80;;;;;;;16.90;76.99;100510.44;5035347;28;20038;-82
2023/07/19 04:26:27;;;;;;;1.55;1.02;;;;;;;16.94;76.16;100510.28;5022922;28;20045;-83
2023/07/19 04:28:54;;;;;;;1.70;1.55;;;;;;;16.95;76.10;100512.03;5040597;28;20037;-83
2023/07/19 04:31:20;;;;;;;7.15;2.03;;;;;;;16.95;75.91;100519.09;5016939;28;20479;-83
2023/07/19 04:33:47;;;;;;;1.27;1.08;;;;;;;16.93;76.09;100524.41;5034160;28;20039;-84
2023/07/19 04:36:15;;;;;;;6.18;2.03;;;;;;;16.93;76.21;100519.13;5036573;28;20117;-84
2023/07/19 04:38:42;;;;;;;4.28;1.60;;;;;;;16.92;76.33;100519.19;5055164;28;20615;-82
2023/07/19 04:41:11;;;;;;;3.25;1.73;;;;;;;16.91;76.51;100510.41;5022593;28;20049;-83
2023/07/19 04:43:38;;;;;;;8.15;2.10;;;;;;;16.92;77.00;100516.56;5029314;28;20041;-83
2023/07/19 04:46:06;;;;;;;2.65;1.98;;;;;;;16.94;77.41;100505.00;5047998;28;20044;-85
2023/07/19 04:48:34;;;;;;;3.55;2.30;;;;;;;16.94;78.46;100512.09;5040447;28;20071;-83
2023/07/19 04:51:01;;;;;;;2.30;2.05;;;;;;;16.96;78.19;100507.59;5023937;28;20060;-83
2023/07/19 04:53:28;;;;;;;4.18;2.47;;;;;;;16.94;78.40;100510.28;5041709;28;20045;-85
2023/07/19 04:55:55;;;;;;;2.08;1.83;;;;;;;16.92;78.60;100505.97;5021264;28;20037;-84
2023/07/19 04:58:22;;;;;;;3.47;2.15;;;;;;;16.80;80.22;100507.28;5039998;28;20057;-86
2023/07/19 05:00:49;;;;;;;2.83;2.10;;;;;;;16.70;80.15;100509.41;5048668;28;20534;-83
2023/07/19 05:03:15;;;;;;;2.05;1.85;;;;;;;16.64;80.87;100507.84;5029671;28;20037;-82
2023/07/19 05:05:42;;;;;;;4.22;2.25;;;;;;;16.72;81.22;100514.63;5024119;28;20610;-85
2023/07/19 05:08:08;;;;;;;3.00;1.52;;;;;;;16.78;80.51;100515.25;5038247;28;20069;-82
2023/07/19 05:10:38;;;;;;;3.67;2.30;;;;;;;16.91;79.94;100521.00;5058565;28;20075;-84
2023/07/19 05:13:05;;;;;;;3.40;1.98;;;;;;;17.00;79.18;100517.13;5024135;28;20079;-83
2023/07/19 05:15:33;;;;;;;1.95;1.85;;;;;;;17.08;78.98;100512.41;5024382;28;20044;-83
2023/07/19 05:18:00;;;;;;;4.13;1.95;;;;;;;17.15;78.73;100507.75;5020492;28;20496;-84
2023/07/19 05:20:30;;;;;;;2.38;2.03;;;;;;;17.24;78.02;100517.97;5039708;28;20522;-87
2023/07/19 05:22:57;;;;;;;2.30;1.90;;;;;;;17.27;77.39;100512.53;5005522;28;20540;-84
2023/07/19 05:25:24;;;;;;;1.83;1.73;;;;;;;17.36;77.38;100512.22;5056314;28;20041;-84
2023/07/19 05:27:51;;;;;;;5.95;4.00;;;;;;;17.47;76.76;100508.25;5052989;28;20094;-85
2023/07/19 05:30:21;;;;;;;2.08;1.88;;;;;;;17.56;76.11;100505.25;5048797;28;20037;-83
2023/07/19 05:32:48;;;;;;;3.50;2.15;;;;;;;17.69;75.68;100509.13;5024801;28;20052;-83
2023/07/19 05:35:14;;;;;;;1.70;1.52;;;;;;;17.79;74.82;100509.59;5023747;28;20048;-84
2023/07/19 05:37:41;;;;;;;2.65;1.70;;;;;;;17.84;74.09;100506.75;5040197;28;20040;-84
2023/07/19 05:40:09;;;;;;;2.72;2.10;;;;;;;17.79;74.12;100511.38;5020969;28;20037;-84
2023/07/19 05:42:36;;;;;;;2.90;1.80;;;;;;;17.72;74.46;100497.53;5015300;28;20044;-84
2023/07/19 05:45:05;;;;;;;2.38;1.92;;;;;;;17.62;74.33;100496.19;5031085;28;20084;-83
2023/07/19 05:47:52;;;;;;;1.40;1.30;;;;;;;17.57;74.30;100498.16;5020916;28;20047;-84
2023/07/19 05:50:19;;;;;;;4.97;2.20;;;;;;;17.61;73.65;100497.13;5026607;28;20052;-82
2023/07/19 05:52:46;;;;;;;12.95;2.13;;;;;;;17.74;73.11;100495.69;5040812;28;20041;-86
2023/07/19 05:55:13;;;;;;;5.75;2.55;;;;;;;18.00;71.76;100496.41;5038247;28;20132;-84
2023/07/19 05:57:40;;;;;;;5.45;2.25;;;;;;;18.29;69.43;100500.47;5030620;28;20123;-85
2023/07/19 06:00:13;;;;;;;4.57;2.10;;;;;;;18.49;68.72;100502.22;5017627;28;20052;-84
2023/07/19 06:02:41;;;;;;;7.60;2.38;;;;;;;18.79;67.11;100499.13;5021909;28;20045;-83
2023/07/19 06:05:08;;;;;;;10.90;2.38;;;;;;;19.07;64.38;100497.03;5037911;28;20064;-83
2023/07/19 06:07:35;;;;;;;4.32;1.55;;;;;;;19.29;64.59;100495.06;5032664;28;20095;-83
2023/07/19 06:10:05;;;;;;;2.28;1.80;;;;;;;19.51;63.35;100497.53;5038103;28;20083;-84
2023/07/19 06:12:32;;;;;;;3.47;1.88;;;;;;;19.61;62.14;100502.41;5059454;28;20033;-84
2023/07/19 06:14:59;;;;;;;6.30;2.30;;;;;;;19.62;61.69;100505.00;5023689;28;20044;-85
2023/07/19 06:17:26;;;;;;;2.97;1.77;;;;;;;19.72;61.64;100505.38;5033207;28;20148;-85
2023/07/19 06:19:52;;;;;;;3.28;2.03;;;;;;;19.76;61.33;100511.41;5017038;28;20037;-83
2023/07/19 06:22:24;;;;;;;14.18;5.38;;;;;;;19.90;61.02;100516.06;5036429;28;20056;-82
2023/07/19 06:24:54;;;;;;;7.22;2.75;;;;;;;20.04;59.86;100512.69;5038005;28;20056;-83
2023/07/19 06:27:21;;;;;;;2.95;1.83;;;;;;;20.03;58.86;100508.34;5017510;28;20037;-82
2023/07/19 06:29:47;;;;;;;3.35;1.58;;;;;;;19.93;57.75;100511.47;5032347;28;20029;-83
2023/07/19 06:32:14;;;;;;;2.58;1.52;;;;;;;19.87;58.49;100506.47;5010018;28;20135;-82
2023/07/19 06:34:42;;;;;;;1.98;1.70;;;;;;;19.96;58.33;100510.47;5046120;28;20040;-83
2023/07/19 06:37:10;;;;;;;2.63;1.65;;;;;;;20.04;58.32;100518.00;5054942;28;20120;-87
2023/07/19 06:39:37;;;;;;;3.97;1.88;;;;;;;20.05;58.55;100517.97;5027166;28;20467;-84
2023/07/19 06:42:04;;;;;;;5.53;2.05;;;;;;;20.13;57.72;100513.09;5031794;28;20064;-84
2023/07/19 06:44:31;;;;;;;6.55;2.22;;;;;;;20.14;57.29;100508.63;5038733;28;20047;-84
2023/07/19 06:47:00;;;;;;;6.53;2.17;;;;;;;20.15;57.44;100511.25;5021398;28;20518;-84
2023/07/19 06:49:27;;;;;;;4.85;1.25;;;;;;;20.28;57.11;100508.78;5021160;28;20132;-83
2023/07/19 06:51:53;;;;;;;3.33;2.20;;;;;;;20.37;56.65;100517.22;5037435;28;20037;-83
2023/07/19 06:54:20;;;;;;;6.82;1.38;;;;;;;20.35;55.99;100511.13;5037909;28;20106;-82
2023/07/19 06:56:46;;;;;;;2.70;1.45;;;;;;;20.19;56.54;100513.72;5038264;28;20037;-82
2023/07/19 06:59:13;;;;;;;3.20;1.60;;;;;;;20.10;57.04;100512.41;5038037;28;20116;-84
2023/07/19 07:01:40;;;;;;;9.88;1.67;;;;;;;20.13;57.40;100506.94;5030071;28;20037;-84
2023/07/19 07:04:08;;;;;;;3.97;1.40;;;;;;;20.17;56.70;100505.84;5037310;28;20028;-87
2023/07/19 07:06:36;;;;;;;2.88;1.42;;;;;;;20.25;55.34;100513.41;5037678;28;20043;-84
2023/07/19 07:09:03;;;;;;;4.13;1.90;;;;;;;20.35;55.30;100516.44;5059887;28;20102;-86
2023/07/19 07:11:29;;;;;;;4.70;2.17;;;;;;;20.50;53.86;100513.84;5035118;28;20033;-87
2023/07/19 07:13:57;;;;;;;3.20;2.03;;;;;;;20.61;53.01;100507.97;5013702;28;20041;-88
2023/07/19 07:16:23;;;;;;;8.10;2.90;;;;;;;20.79;52.57;100511.47;5031044;28;20598;-89
2023/07/19 07:18:50;;;;;;;4.38;2.50;;;;;;;20.90;52.71;100505.56;4978548;28;20044;-82
2023/07/19 07:21:17;;;;;;;8.23;4.03;;;;;;;21.03;52.31;100505.75;5012518;28;20525;-85
2023/07/19 07:23:44;;;;;;;3.85;1.65;;;;;;;20.95;51.26;100499.97;5020925;28;20034;-82
2023/07/19 07:26:11;;;;;;;2.85;1.45;;;;;;;20.95;51.66;100513.28;5022614;28;20037;-83
2023/07/19 07:28:38;;;;;;;1.80;1.20;;;;;;;21.06;51.88;100515.38;5009988;28;20044;-81
2023/07/19 07:31:08;;;;;;;11.15;2.83;;;;;;;21.20;51.81;100506.59;5007894;28;20041;-83
2023/07/19 07:33:39;;;;;;;6.82;1.60;;;;;;;21.32;51.44;100514.75;5010302;28;20045;-83
2023/07/19 07:36:06;;;;;;;4.53;1.42;;;;;;;21.41;51.45;100521.38;4995812;28;20049;-85
2023/07/19 07:38:34;;;;;;;2.70;1.40;;;;;;;21.38;51.73;100518.91;5007650;28;20060;-81
2023/07/19 07:41:04;;;;;;;2.08;1.48;;;;;;;21.42;51.29;100517.78;5005436;28;20048;-82
2023/07/19 07:43:33;;;;;;;4.25;1.35;;;;;;;21.38;50.62;100516.22;5017569;28;20032;-81
2023/07/19 07:46:00;;;;;;;2.20;1.13;;;;;;;21.31;50.06;100518.38;5005765;28;20128;-83
2023/07/19 07:48:27;;;;;;;2.92;1.60;;;;;;;21.13;49.99;100512.28;5005494;28;20057;-83
2023/07/19 07:50:54;;;;;;;1.88;1.08;;;;;;;21.06;50.35;100516.22;4998047;28;20045;-87
2023/07/19 07:53:21;;;;;;;4.72;1.33;;;;;;;20.96;50.05;100510.56;5010730;28;20050;-86
2023/07/19 07:55:49;;;;;;;1.95;1.40;;;;;;;20.92;50.21;100521.44;5009669;28;20137;-83
2023/07/19 07:58:17;;;;;;;2.47;1.33;;;;;;;20.96;50.32;100515.88;4991955;28;20741;-85
2023/07/19 08:00:44;;;;;;;2.90;1.38;;;;;;;21.10;49.44;100511.59;4994336;28;20128;-82
2023/07/19 08:03:11;;;;;;;1.23;1.13;;;;;;;21.48;49.14;100516.56;5013226;28;20068;-83
2023/07/19 08:05:38;;;;;;;2.03;1.23;;;;;;;21.72;49.69;100508.13;5014213;28;20041;-86
2023/07/19 08:08:07;;;;;;;2.83;1.65;;;;;;;21.79;49.07;100510.34;5008249;28;20048;-82
2023/07/19 08:10:34;;;;;;;6.45;1.52;;;;;;;21.75;49.41;100508.81;5010580;28;20054;-84
2023/07/19 08:13:00;;;;;;;2.63;1.60;;;;;;;21.66;49.29;100508.50;5006866;28;20033;-82
2023/07/19 08:15:27;;;;;;;2.38;1.40;;;;;;;21.87;48.67;100509.06;5017038;28;20052;-82
2023/07/19 08:17:53;;;;;;;6.28;1.15;;;;;;;22.19;48.17;100500.94;5031861;28;20052;-81
2023/07/19 08:20:20;;;;;;;2.88;1.75;;;;;;;22.61;47.02;100504.66;5033305;28;20037;-81
2023/07/19 08:22:47;;;;;;;2.70;1.65;;;;;;;22.63;47.42;100513.41;5021167;28;20033;-82
2023/07/19 08:25:16;;;;;;;9.48;1.85;;;;;;;22.63;47.34;100516.06;5011980;28;20079;-84
2023/07/19 08:27:44;;;;;;;2.40;1.20;;;;;;;23.05;46.67;100514.34;5003638;28;20756;-85
2023/07/19 08:30:15;;;;;;;1.77;1.25;;;;;;;23.70;45.51;100507.50;5022066;28;20461;-83
2023/07/19 08:32:49;;;;;;;1.40;1.20;;;;;;;24.06;44.23;100508.69;5016304;28;20044;-82
2023/07/19 08:35:17;;;;;;;2.33;1.30;;;;;;;24.16;44.39;100508.03;5026796;28;20047;-85
2023/07/19 08:37:47;;;;;;;3.80;1.58;;;;;;;24.53;43.86;100509.03;5023199;28;20452;-85
2023/07/19 08:40:20;;;;;;;2.38;1.45;;;;;;;25.11;42.76;100505.91;5048621;28;20037;-82
2023/07/19 08:42:56;;;;;;;1.67;1.58;;;;;;;25.66;41.33;100502.81;5049033;28;20037;-82
2023/07/19 08:45:24;;;;;;;3.05;1.80;;;;;;;25.02;42.40;100515.44;5032174;28;20041;-83
2023/07/19 08:47:52;;;;;;;4.47;1.88;;;;;;;24.37;43.03;100513.75;5040955;28;20076;-87
2023/07/19 08:54:09;;;;;;;3.60;1.75;;;;;;;24.20;44.66;100506.91;5038962;28;20087;-83
2023/07/19 09:00:21;;;;;;;3.95;1.85;;;;;;;26.28;40.65;100503.50;5060365;28;20029;-82
2023/07/19 09:02:48;;;;;;;3.75;2.15;;;;;;;26.04;40.63;100509.81;5039806;28;20040;-84
2023/07/19 09:05:15;;;;;;;2.25;1.60;;;;;;;26.55;39.68;100498.66;5037730;28;20048;-83
2023/07/19 09:07:44;;;;;;;3.38;1.48;;;;;;;27.24;38.83;100500.34;5038201;28;20049;-83
2023/07/19 09:10:32;;;;;;;4.68;1.75;;;;;;;28.30;37.03;100500.53;5046175;28;20230;-82
2023/07/19 09:13:06;;;;;;;1.67;1.50;;;;;;;29.04;35.56;100506.69;5022681;28;20064;-81
2023/07/19 09:15:36;;;;;;;1.60;1.42;;;;;;;29.55;34.68;100494.03;5039364;28;20049;-83
2023/07/19 09:18:05;;;;;;;2.85;2.00;;;;;;;29.69;34.58;100499.00;5049742;28;20057;-83
2023/07/19 09:20:37;;;;;;;1.83;1.60;;;;;;;29.68;34.12;100491.06;5033303;28;20040;-82
2023/07/19 09:23:06;;;;;;;2.53;1.57;;;;;;;30.18;34.15;100498.13;5038085;28;20364;-81
2023/07/19 09:25:36;;;;;;;4.32;1.77;;;;;;;30.59;33.31;100497.91;5061526;28;20463;-81
2023/07/19 09:28:09;;;;;;;4.57;1.80;;;;;;;31.49;32.24;100490.84;5039351;28;20132;-82
2023/07/19 09:30:36;;;;;;;2.78;1.75;;;;;;;32.49;31.28;100493.34;5034460;28;20379;-82
2023/07/19 09:33:03;;;;;;;3.28;2.08;;;;;;;32.64;30.06;100490.88;5022544;28;20048;-82
2023/07/19 09:35:33;;;;;;;3.33;1.52;;;;;;;32.91;30.40;100491.72;5017691;28;20383;-84
2023/07/19 09:37:59;;;;;;;2.75;1.38;;;;;;;33.03;29.53;100478.69;5041526;28;20043;-83
2023/07/19 09:40:26;;;;;;;1.75;1.05;;;;;;;32.32;30.19;100483.47;5023988;28;20049;-82
2023/07/19 09:42:55;;;;;;;3.30;1.63;;;;;;;32.80;29.16;100486.56;5027306;28;20044;-82
2023/07/19 09:45:25;;;;;;;1.20;1.02;;;;;;;32.07;29.16;100482.41;5023386;28;20045;-85
2023/07/19 09:47:53;;;;;;;4.85;1.38;;;;;;;31.94;29.40;100486.38;5004136;28;20049;-81
2023/07/19 09:50:21;;;;;;;2.22;1.23;;;;;;;31.25;30.75;100468.97;5034156;28;20048;-81
2023/07/19 09:52:52;;;;;;;4.40;1.40;;;;;;;32.20;29.58;100465.75;5046920;28;20038;-81
2023/07/19 09:55:20;;;;;;;2.30;1.10;;;;;;;31.76;29.66;100464.75;5036964;28;20045;-83
2023/07/19 10:01:36;;;;;;;2.92;1.15;;;;;;;29.17;32.98;100474.09;5043864;28;20056;-81
2023/07/19 10:04:22;;;;;;;3.38;1.00;;;;;;;28.86;33.35;100469.66;5028633;28;20045;-83
2023/07/19 10:07:15;;;;;;;1.33;1.00;;;;;;;29.89;31.91;100466.66;5033735;28;20049;-84
2023/07/19 10:09:44;;;;;;;1.85;0.98;;;;;;;30.53;31.18;100464.22;5031965;28;20033;-86
2023/07/19 10:12:51;;;;;;;2.13;1.05;;;;;;;31.43;28.44;100475.28;5049583;28;20104;-82
2023/07/19 10:15:39;;;;;;;1.58;1.00;;;;;;;30.71;29.71;100469.69;5047882;28;20036;-84
2023/07/19 10:18:14;;;;;;;3.03;1.10;;;;;;;31.29;28.97;100464.97;5016724;28;20072;-84
2023/07/19 10:20:43;;;;;;;4.30;1.05;;;;;;;32.48;27.91;100463.72;5185980;23;20080;-81
2023/07/19 10:23:16;;;;;;;2.85;0.70;;;;;;;32.91;26.71;100461.88;5024067;28;20100;-83
2023/07/19 10:25:50;;;;;;;1.95;1.05;;;;;;;32.28;28.23;100463.97;5020344;28;20460;-82
2023/07/19 10:28:38;;;;;;;2.20;1.00;;;;;;;31.48;28.57;100432.34;5019914;28;20034;-82
2023/07/19 10:31:07;;;;;;;2.38;1.02;;;;;;;30.79;29.23;100458.97;5029073;28;20072;-81
2023/07/19 10:33:35;;;;;;;1.25;0.95;;;;;;;30.91;29.72;100461.47;5025566;28;20045;-82
2023/07/19 10:36:12;;;;;;;2.50;1.15;;;;;;;30.68;30.23;100464.59;5033340;28;20050;-82
2023/07/19 10:42:33;;;;;;;2.58;1.00;;;;;;;30.29;30.98;100462.88;5020949;28;20052;-84
2023/07/19 10:45:45;;;;;;;1.17;0.90;;;;;;;29.20;32.44;100458.50;5025902;28;20042;-84
2023/07/19 10:48:15;;;;;;;1.80;1.05;;;;;;;28.24;33.85;100460.72;5029511;28;20065;-81
2023/07/19 10:50:51;;;;;;;5.90;1.50;;;;;;;27.76;33.95;100464.75;5044311;28;20029;-83
2023/07/19 10:53:20;;;;;;;2.35;1.25;;;;;;;27.12;35.07;100469.09;5038338;28;20063;-83
2023/07/19 10:56:14;;;;;;;2.97;1.17;;;;;;;26.70;35.73;100467.06;5034395;28;20069;-81
2023/07/19 10:58:41;;;;;;;4.22;1.23;;;;;;;26.91;35.54;100467.19;5029970;28;20048;-81
2023/07/19 11:01:08;;;;;;;1.02;0.73;;;;;;;27.31;35.11;100465.78;5014642;28;20136;-83
2023/07/19 11:04:51;;;;;;;2.75;1.20;;;;;;;27.60;34.78;100465.19;5017311;28;20045;-83
2023/07/19 11:07:36;;;;;;;1.67;0.80;;;;;;;26.83;36.00;100461.59;5044437;28;20107;-80
2023/07/19 11:10:18;;;;;;;3.15;1.17;;;;;;;26.53;36.45;100464.84;5023941;28;20040;-80
2023/07/19 11:12:49;;;;;;;0.98;0.93;;;;;;;26.52;36.12;100457.81;5020894;28;20038;-83
2023/07/19 11:15:18;;;;;;;1.40;0.80;;;;;;;28.14;33.52;100455.25;5024707;28;20053;-81
2023/07/19 11:17:51;;;;;;;2.35;1.10;;;;;;;29.94;30.94;100450.88;5034193;28;20060;-84
2023/07/19 11:32:42;;;;;;;1.63;0.65;;;;;;;33.34;26.24;100439.28;1399448;26;20081;-86
2023/07/19 11:35:09;;;;;;;3.50;1.20;;;;;;;32.28;26.92;100444.13;5006023;28;20049;-86
2023/07/19 11:37:37;;;;;;;2.22;0.88;;;;;;;30.19;29.07;100430.50;5008475;28;20072;-87
2023/07/19 11:40:05;;;;;;;2.55;1.10;;;;;;;30.08;29.38;100443.31;5017407;28;20037;-87
2023/07/19 11:42:57;;;;;;;2.55;1.10;;;;;;;31.48;28.09;100431.50;5014658;28;20048;-87
2023/07/19 11:45:27;;;;;;;2.58;0.90;;;;;;;32.42;26.92;100424.56;5003199;28;20583;-87
2023/07/19 11:48:02;;;;;;;1.35;1.27;;;;;;;31.64;27.96;100420.00;4984443;28;20045;-87
2023/07/19 11:50:30;;;;;;;2.20;0.98;;;;;;;30.97;28.87;100426.59;5005256;28;20045;-86
2023/07/19 11:53:02;;;;;;;1.80;1.20;;;;;;;30.86;29.14;100437.63;5015493;28;20108;-86
2023/07/19 11:55:30;;;;;;;5.07;1.40;;;;;;;31.40;28.38;100434.16;5003616;28;20378;-87
2023/07/19 11:58:02;;;;;;;1.00;0.90;;;;;;;31.34;28.20;100432.91;5014582;28;20522;-86
2023/07/19 12:00:31;;;;;;;1.05;0.73;;;;;;;30.48;29.41;100436.81;5002029;28;20064;-87